sensor_id;sensor_type;location;lat;lon;timestamp;P1;durP1;ratioP1;P2;durP2;ratioP2
2362;SDS011;64265;51.664;7.626;2022-12-05T00:00:22;9.90;;;8.90;;
2362;SDS011;64265;51.664;7.626;2022-12-05T00:02:50;11.63;;;9.50;;
2362;SDS011;64265;51.664;7.626;2022-12-05T00:05:17;9.70;;;8.70;;
2362;SDS011;64265;51.664;7.626;2022-12-05T00:07:44;11.57;;;10.32;;
2362;SDS011;64265;51.664;7.626;2022-12-05T00:10:11;11.98;;;8.85;;
2362;SDS011;64265;51.664;7.626;2022-12-05T00:12:38;11.15;;;9.60;;
2362;SDS011;64265;51.664;7.626;2022-12-05T00:15:05;11.73;;;8.25;;
2362;SDS011;64265;51.664;7.626;2022-12-05T00:17:36;19.05;;;11.45;;
2362;SDS011;64265;51.664;7.626;2022-12-05T00:20:05;11.32;;;9.40;;
2362;SDS011;64265;51.664;7.626;2022-12-05T00:22:34;11.93;;;8.93;;
2362;SDS011;64265;51.664;7.626;2022-12-05T00:25:02;10.38;;;9.30;;
2362;SDS011;64265;51.664;7.626;2022-12-05T00:27:29;9.27;;;8.38;;
2362;SDS011;64265;51.664;7.626;2022-12-05T00:29:56;12.80;;;8.60;;
2362;SDS011;64265;51.664;7.626;2022-12-05T00:32:23;9.82;;;8.43;;
2362;SDS011;64265;51.664;7.626;2022-12-05T00:34:50;9.55;;;8.05;;
2362;SDS011;64265;51.664;7.626;2022-12-05T00:37:18;10.07;;;9.00;;
2362;SDS011;64265;51.664;7.626;2022-12-05T00:39:45;10.98;;;7.70;;
2362;SDS011;64265;51.664;7.626;2022-12-05T00:42:12;9.30;;;8.07;;
2362;SDS011;64265;51.664;7.626;2022-12-05T00:44:39;10.23;;;8.52;;
2362;SDS011;64265;51.664;7.626;2022-12-05T00:47:06;8.73;;;7.50;;
2362;SDS011;64265;51.664;7.626;2022-12-05T00:49:33;9.50;;;8.38;;
2362;SDS011;64265;51.664;7.626;2022-12-05T00:52:00;9.98;;;7.88;;
2362;SDS011;64265;51.664;7.626;2022-12-05T00:54:28;11.38;;;8.00;;
2362;SDS011;64265;51.664;7.626;2022-12-05T00:56:54;10.82;;;8.35;;
2362;SDS011;64265;51.664;7.626;2022-12-05T00:59:21;9.52;;;8.63;;
2362;SDS011;64265;51.664;7.626;2022-12-05T01:01:48;8.93;;;7.63;;
2362;SDS011;64265;51.664;7.626;2022-12-05T01:04:17;10.75;;;8.15;;
2362;SDS011;64265;51.664;7.626;2022-12-05T01:06:46;8.60;;;7.75;;
2362;SDS011;64265;51.664;7.626;2022-12-05T01:09:13;8.73;;;7.93;;
2362;SDS011;64265;51.664;7.626;2022-12-05T01:11:43;8.77;;;7.28;;
2362;SDS011;64265;51.664;7.626;2022-12-05T01:14:10;8.30;;;7.15;;
2362;SDS011;64265;51.664;7.626;2022-12-05T01:16:39;8.68;;;7.63;;
2362;SDS011;64265;51.664;7.626;2022-12-05T01:19:10;10.18;;;8.75;;
2362;SDS011;64265;51.664;7.626;2022-12-05T01:21:37;8.57;;;6.85;;
2362;SDS011;64265;51.664;7.626;2022-12-05T01:24:04;9.55;;;8.18;;
2362;SDS011;64265;51.664;7.626;2022-12-05T01:26:31;10.70;;;7.78;;
2362;SDS011;64265;51.664;7.626;2022-12-05T01:29:00;8.82;;;7.30;;
2362;SDS011;64265;51.664;7.626;2022-12-05T01:31:27;11.48;;;9.35;;
2362;SDS011;64265;51.664;7.626;2022-12-05T01:33:56;8.45;;;7.72;;
2362;SDS011;64265;51.664;7.626;2022-12-05T01:36:24;7.93;;;6.82;;
2362;SDS011;64265;51.664;7.626;2022-12-05T01:38:52;9.85;;;8.75;;
2362;SDS011;64265;51.664;7.626;2022-12-05T01:41:20;7.85;;;6.88;;
2362;SDS011;64265;51.664;7.626;2022-12-05T01:43:52;6.68;;;5.93;;
2362;SDS011;64265;51.664;7.626;2022-12-05T01:46:26;8.40;;;7.60;;
2362;SDS011;64265;51.664;7.626;2022-12-05T01:48:54;7.82;;;7.07;;
2362;SDS011;64265;51.664;7.626;2022-12-05T01:51:25;7.85;;;6.97;;
2362;SDS011;64265;51.664;7.626;2022-12-05T01:53:52;8.25;;;6.93;;
2362;SDS011;64265;51.664;7.626;2022-12-05T01:56:20;8.38;;;6.97;;
2362;SDS011;64265;51.664;7.626;2022-12-05T01:58:47;7.93;;;7.13;;
2362;SDS011;64265;51.664;7.626;2022-12-05T02:01:15;8.38;;;7.00;;
2362;SDS011;64265;51.664;7.626;2022-12-05T02:03:45;8.43;;;7.40;;
2362;SDS011;64265;51.664;7.626;2022-12-05T02:06:15;7.55;;;6.75;;
2362;SDS011;64265;51.664;7.626;2022-12-05T02:08:42;7.78;;;7.10;;
2362;SDS011;64265;51.664;7.626;2022-12-05T02:11:10;7.78;;;6.90;;
2362;SDS011;64265;51.664;7.626;2022-12-05T02:13:42;8.27;;;6.90;;
2362;SDS011;64265;51.664;7.626;2022-12-05T02:16:19;6.43;;;5.63;;
2362;SDS011;64265;51.664;7.626;2022-12-05T02:19:00;7.30;;;5.95;;
2362;SDS011;64265;51.664;7.626;2022-12-05T02:21:59;6.63;;;5.88;;
2362;SDS011;64265;51.664;7.626;2022-12-05T02:25:05;7.18;;;6.45;;
2362;SDS011;64265;51.664;7.626;2022-12-05T02:31:23;6.50;;;5.90;;
2362;SDS011;64265;51.664;7.626;2022-12-05T02:33:56;8.18;;;7.03;;
2362;SDS011;64265;51.664;7.626;2022-12-05T02:36:31;6.82;;;5.45;;
2362;SDS011;64265;51.664;7.626;2022-12-05T02:39:05;6.80;;;5.80;;
2362;SDS011;64265;51.664;7.626;2022-12-05T02:41:40;7.20;;;6.53;;
2362;SDS011;64265;51.664;7.626;2022-12-05T02:44:15;8.65;;;7.32;;
2362;SDS011;64265;51.664;7.626;2022-12-05T02:46:47;8.93;;;7.15;;
2362;SDS011;64265;51.664;7.626;2022-12-05T02:49:17;7.25;;;6.00;;
2362;SDS011;64265;51.664;7.626;2022-12-05T02:51:48;8.40;;;6.60;;
2362;SDS011;64265;51.664;7.626;2022-12-05T02:54:18;7.00;;;5.90;;
2362;SDS011;64265;51.664;7.626;2022-12-05T02:56:49;7.05;;;6.35;;
2362;SDS011;64265;51.664;7.626;2022-12-05T02:59:17;6.32;;;5.18;;
2362;SDS011;64265;51.664;7.626;2022-12-05T03:01:44;6.97;;;6.28;;
2362;SDS011;64265;51.664;7.626;2022-12-05T03:04:14;8.88;;;7.40;;
2362;SDS011;64265;51.664;7.626;2022-12-05T03:06:44;6.60;;;5.75;;
2362;SDS011;64265;51.664;7.626;2022-12-05T03:09:15;8.45;;;6.68;;
2362;SDS011;64265;51.664;7.626;2022-12-05T03:11:46;6.85;;;5.50;;
2362;SDS011;64265;51.664;7.626;2022-12-05T03:14:18;6.90;;;5.88;;
2362;SDS011;64265;51.664;7.626;2022-12-05T03:16:48;6.70;;;6.00;;
2362;SDS011;64265;51.664;7.626;2022-12-05T03:19:18;6.75;;;5.70;;
2362;SDS011;64265;51.664;7.626;2022-12-05T03:21:50;5.00;;;4.60;;
2362;SDS011;64265;51.664;7.626;2022-12-05T03:24:22;5.90;;;5.30;;
2362;SDS011;64265;51.664;7.626;2022-12-05T03:26:53;7.93;;;6.00;;
2362;SDS011;64265;51.664;7.626;2022-12-05T03:29:28;6.10;;;5.60;;
2362;SDS011;64265;51.664;7.626;2022-12-05T03:32:04;6.32;;;5.63;;
2362;SDS011;64265;51.664;7.626;2022-12-05T03:34:41;6.83;;;6.17;;
2362;SDS011;64265;51.664;7.626;2022-12-05T03:37:14;5.78;;;5.28;;
2362;SDS011;64265;51.664;7.626;2022-12-05T03:39:47;6.45;;;5.85;;
2362;SDS011;64265;51.664;7.626;2022-12-05T03:42:21;6.68;;;5.30;;
2362;SDS011;64265;51.664;7.626;2022-12-05T03:44:54;5.70;;;5.20;;
2362;SDS011;64265;51.664;7.626;2022-12-05T03:47:26;6.13;;;5.53;;
2362;SDS011;64265;51.664;7.626;2022-12-05T03:50:01;5.50;;;5.00;;
2362;SDS011;64265;51.664;7.626;2022-12-05T03:52:33;6.23;;;5.63;;
2362;SDS011;64265;51.664;7.626;2022-12-05T03:55:04;6.45;;;5.75;;
2362;SDS011;64265;51.664;7.626;2022-12-05T03:57:34;7.22;;;5.97;;
2362;SDS011;64265;51.664;7.626;2022-12-05T04:00:09;5.88;;;5.28;;
2362;SDS011;64265;51.664;7.626;2022-12-05T04:02:40;5.60;;;4.75;;
2362;SDS011;64265;51.664;7.626;2022-12-05T04:05:13;7.40;;;5.25;;
2362;SDS011;64265;51.664;7.626;2022-12-05T04:07:44;5.40;;;4.90;;
2362;SDS011;64265;51.664;7.626;2022-12-05T04:10:14;5.83;;;5.30;;
2362;SDS011;64265;51.664;7.626;2022-12-05T04:12:44;6.57;;;5.20;;
2362;SDS011;64265;51.664;7.626;2022-12-05T04:15:13;5.50;;;5.00;;
2362;SDS011;64265;51.664;7.626;2022-12-05T04:17:45;6.93;;;5.45;;
2362;SDS011;64265;51.664;7.626;2022-12-05T04:20:16;5.72;;;5.15;;
2362;SDS011;64265;51.664;7.626;2022-12-05T04:23:03;6.85;;;5.45;;
2362;SDS011;64265;51.664;7.626;2022-12-05T04:25:34;6.50;;;5.22;;
2362;SDS011;64265;51.664;7.626;2022-12-05T04:28:07;6.00;;;4.63;;
2362;SDS011;64265;51.664;7.626;2022-12-05T04:30:44;5.95;;;4.80;;
2362;SDS011;64265;51.664;7.626;2022-12-05T04:33:15;5.78;;;5.28;;
2362;SDS011;64265;51.664;7.626;2022-12-05T04:35:47;4.83;;;4.40;;
2362;SDS011;64265;51.664;7.626;2022-12-05T04:38:19;5.10;;;4.70;;
2362;SDS011;64265;51.664;7.626;2022-12-05T04:40:51;5.77;;;5.17;;
2362;SDS011;64265;51.664;7.626;2022-12-05T04:43:23;5.68;;;4.70;;
2362;SDS011;64265;51.664;7.626;2022-12-05T04:45:51;4.43;;;4.03;;
2362;SDS011;64265;51.664;7.626;2022-12-05T04:48:21;5.38;;;4.88;;
2362;SDS011;64265;51.664;7.626;2022-12-05T04:50:52;5.28;;;4.63;;
2362;SDS011;64265;51.664;7.626;2022-12-05T04:53:20;5.85;;;5.35;;
2362;SDS011;64265;51.664;7.626;2022-12-05T04:55:49;6.00;;;5.40;;
2362;SDS011;64265;51.664;7.626;2022-12-05T04:58:17;6.55;;;5.88;;
2362;SDS011;64265;51.664;7.626;2022-12-05T05:00:46;4.93;;;4.43;;
2362;SDS011;64265;51.664;7.626;2022-12-05T05:03:20;5.10;;;4.60;;
2362;SDS011;64265;51.664;7.626;2022-12-05T05:05:50;5.28;;;4.78;;
2362;SDS011;64265;51.664;7.626;2022-12-05T05:08:20;4.47;;;4.07;;
2362;SDS011;64265;51.664;7.626;2022-12-05T05:10:51;5.22;;;4.75;;
2362;SDS011;64265;51.664;7.626;2022-12-05T05:13:25;7.03;;;5.30;;
2362;SDS011;64265;51.664;7.626;2022-12-05T05:15:52;5.05;;;4.55;;
2362;SDS011;64265;51.664;7.626;2022-12-05T05:18:19;4.55;;;4.03;;
2362;SDS011;64265;51.664;7.626;2022-12-05T05:20:45;5.00;;;4.50;;
2362;SDS011;64265;51.664;7.626;2022-12-05T05:23:13;5.07;;;4.65;;
2362;SDS011;64265;51.664;7.626;2022-12-05T05:25:40;5.70;;;4.90;;
2362;SDS011;64265;51.664;7.626;2022-12-05T05:28:07;5.15;;;4.50;;
2362;SDS011;64265;51.664;7.626;2022-12-05T05:30:33;5.80;;;5.20;;
2362;SDS011;64265;51.664;7.626;2022-12-05T05:33:00;4.88;;;4.47;;
2362;SDS011;64265;51.664;7.626;2022-12-05T05:35:27;5.33;;;4.57;;
2362;SDS011;64265;51.664;7.626;2022-12-05T05:37:54;5.73;;;5.13;;
2362;SDS011;64265;51.664;7.626;2022-12-05T05:40:22;5.00;;;4.60;;
2362;SDS011;64265;51.664;7.626;2022-12-05T05:42:48;4.88;;;4.38;;
2362;SDS011;64265;51.664;7.626;2022-12-05T05:45:16;5.60;;;4.90;;
2362;SDS011;64265;51.664;7.626;2022-12-05T05:47:43;5.47;;;4.40;;
2362;SDS011;64265;51.664;7.626;2022-12-05T05:50:10;4.80;;;3.60;;
2362;SDS011;64265;51.664;7.626;2022-12-05T05:52:37;4.57;;;4.17;;
2362;SDS011;64265;51.664;7.626;2022-12-05T05:55:04;4.97;;;4.37;;
2362;SDS011;64265;51.664;7.626;2022-12-05T05:57:34;4.20;;;3.80;;
2362;SDS011;64265;51.664;7.626;2022-12-05T06:00:03;4.77;;;4.20;;
2362;SDS011;64265;51.664;7.626;2022-12-05T06:02:31;4.43;;;4.03;;
2362;SDS011;64265;51.664;7.626;2022-12-05T06:04:58;4.60;;;4.10;;
2362;SDS011;64265;51.664;7.626;2022-12-05T06:07:25;5.63;;;4.80;;
2362;SDS011;64265;51.664;7.626;2022-12-05T06:09:52;5.07;;;4.57;;
2362;SDS011;64265;51.664;7.626;2022-12-05T06:12:19;6.17;;;4.97;;
2362;SDS011;64265;51.664;7.626;2022-12-05T06:14:47;5.10;;;4.60;;
2362;SDS011;64265;51.664;7.626;2022-12-05T06:17:15;4.80;;;4.40;;
2362;SDS011;64265;51.664;7.626;2022-12-05T06:19:42;4.23;;;3.87;;
2362;SDS011;64265;51.664;7.626;2022-12-05T06:22:09;4.27;;;3.93;;
2362;SDS011;64265;51.664;7.626;2022-12-05T06:24:36;4.73;;;4.33;;
2362;SDS011;64265;51.664;7.626;2022-12-05T06:27:03;5.27;;;4.77;;
2362;SDS011;64265;51.664;7.626;2022-12-05T06:29:30;4.27;;;3.87;;
2362;SDS011;64265;51.664;7.626;2022-12-05T06:31:58;6.03;;;4.80;;
2362;SDS011;64265;51.664;7.626;2022-12-05T06:34:25;4.93;;;4.53;;
2362;SDS011;64265;51.664;7.626;2022-12-05T06:36:52;4.27;;;3.90;;
2362;SDS011;64265;51.664;7.626;2022-12-05T06:39:18;8.07;;;5.47;;
2362;SDS011;64265;51.664;7.626;2022-12-05T06:41:45;4.77;;;4.27;;
2362;SDS011;64265;51.664;7.626;2022-12-05T06:44:12;4.60;;;4.20;;
2362;SDS011;64265;51.664;7.626;2022-12-05T06:46:38;4.53;;;4.13;;
2362;SDS011;64265;51.664;7.626;2022-12-05T06:49:11;4.50;;;4.10;;
2362;SDS011;64265;51.664;7.626;2022-12-05T06:51:39;4.83;;;4.43;;
2362;SDS011;64265;51.664;7.626;2022-12-05T06:54:05;5.00;;;4.30;;
2362;SDS011;64265;51.664;7.626;2022-12-05T06:56:32;4.80;;;4.40;;
2362;SDS011;64265;51.664;7.626;2022-12-05T06:58:59;4.70;;;4.30;;
2362;SDS011;64265;51.664;7.626;2022-12-05T07:01:25;3.90;;;3.50;;
2362;SDS011;64265;51.664;7.626;2022-12-05T07:04:05;4.23;;;3.93;;
2362;SDS011;64265;51.664;7.626;2022-12-05T07:06:36;4.97;;;4.47;;
2362;SDS011;64265;51.664;7.626;2022-12-05T07:09:05;4.87;;;4.47;;
2362;SDS011;64265;51.664;7.626;2022-12-05T07:11:32;4.57;;;4.17;;
2362;SDS011;64265;51.664;7.626;2022-12-05T07:13:59;4.40;;;4.00;;
2362;SDS011;64265;51.664;7.626;2022-12-05T07:16:26;4.87;;;4.07;;
2362;SDS011;64265;51.664;7.626;2022-12-05T07:18:53;4.17;;;3.80;;
2362;SDS011;64265;51.664;7.626;2022-12-05T07:21:21;4.67;;;3.90;;
2362;SDS011;64265;51.664;7.626;2022-12-05T07:23:48;4.50;;;4.10;;
2362;SDS011;64265;51.664;7.626;2022-12-05T07:26:17;5.17;;;4.67;;
2362;SDS011;64265;51.664;7.626;2022-12-05T07:28:44;6.13;;;4.07;;
2362;SDS011;64265;51.664;7.626;2022-12-05T07:31:12;7.10;;;4.60;;
2362;SDS011;64265;51.664;7.626;2022-12-05T07:33:40;4.30;;;3.90;;
2362;SDS011;64265;51.664;7.626;2022-12-05T07:36:08;3.70;;;3.37;;
2362;SDS011;64265;51.664;7.626;2022-12-05T07:38:38;4.25;;;3.85;;
2362;SDS011;64265;51.664;7.626;2022-12-05T07:41:05;6.33;;;4.33;;
2362;SDS011;64265;51.664;7.626;2022-12-05T07:43:33;5.00;;;4.60;;
2362;SDS011;64265;51.664;7.626;2022-12-05T07:46:00;3.97;;;3.57;;
2362;SDS011;64265;51.664;7.626;2022-12-05T07:48:27;4.47;;;4.07;;
2362;SDS011;64265;51.664;7.626;2022-12-05T07:50:57;5.50;;;4.27;;
2362;SDS011;64265;51.664;7.626;2022-12-05T07:53:25;4.67;;;4.00;;
2362;SDS011;64265;51.664;7.626;2022-12-05T07:55:53;3.50;;;3.20;;
2362;SDS011;64265;51.664;7.626;2022-12-05T07:58:20;5.80;;;3.80;;
2362;SDS011;64265;51.664;7.626;2022-12-05T08:00:47;3.93;;;3.50;;
2362;SDS011;64265;51.664;7.626;2022-12-05T08:03:14;7.40;;;4.00;;
2362;SDS011;64265;51.664;7.626;2022-12-05T08:05:40;3.77;;;3.37;;
2362;SDS011;64265;51.664;7.626;2022-12-05T08:08:07;4.00;;;3.70;;
2362;SDS011;64265;51.664;7.626;2022-12-05T08:10:34;4.10;;;3.70;;
2362;SDS011;64265;51.664;7.626;2022-12-05T08:13:02;5.15;;;4.72;;
2362;SDS011;64265;51.664;7.626;2022-12-05T08:15:29;4.37;;;3.97;;
2362;SDS011;64265;51.664;7.626;2022-12-05T08:17:55;4.43;;;4.03;;
2362;SDS011;64265;51.664;7.626;2022-12-05T08:20:22;4.30;;;3.57;;
2362;SDS011;64265;51.664;7.626;2022-12-05T08:22:50;4.07;;;3.67;;
2362;SDS011;64265;51.664;7.626;2022-12-05T08:25:18;4.03;;;3.73;;
2362;SDS011;64265;51.664;7.626;2022-12-05T08:27:45;4.13;;;3.73;;
2362;SDS011;64265;51.664;7.626;2022-12-05T08:30:13;3.80;;;3.40;;
2362;SDS011;64265;51.664;7.626;2022-12-05T08:32:40;4.37;;;3.97;;
2362;SDS011;64265;51.664;7.626;2022-12-05T08:35:07;4.53;;;4.13;;
2362;SDS011;64265;51.664;7.626;2022-12-05T08:37:34;4.03;;;3.63;;
2362;SDS011;64265;51.664;7.626;2022-12-05T08:40:01;4.20;;;3.80;;
2362;SDS011;64265;51.664;7.626;2022-12-05T08:42:28;5.67;;;4.00;;
2362;SDS011;64265;51.664;7.626;2022-12-05T08:44:55;3.80;;;3.50;;
2362;SDS011;64265;51.664;7.626;2022-12-05T08:47:23;4.43;;;4.03;;
2362;SDS011;64265;51.664;7.626;2022-12-05T08:49:50;4.03;;;3.67;;
2362;SDS011;64265;51.664;7.626;2022-12-05T08:52:16;4.50;;;4.10;;
2362;SDS011;64265;51.664;7.626;2022-12-05T08:54:43;3.90;;;3.60;;
2362;SDS011;64265;51.664;7.626;2022-12-05T08:57:10;5.10;;;4.57;;
2362;SDS011;64265;51.664;7.626;2022-12-05T08:59:36;5.23;;;4.40;;
2362;SDS011;64265;51.664;7.626;2022-12-05T09:02:03;4.70;;;4.30;;
2362;SDS011;64265;51.664;7.626;2022-12-05T09:04:31;4.80;;;4.30;;
2362;SDS011;64265;51.664;7.626;2022-12-05T09:07:00;4.33;;;3.93;;
2362;SDS011;64265;51.664;7.626;2022-12-05T09:09:27;4.83;;;4.43;;
2362;SDS011;64265;51.664;7.626;2022-12-05T09:11:56;7.20;;;4.73;;
2362;SDS011;64265;51.664;7.626;2022-12-05T09:14:27;5.80;;;4.83;;
2362;SDS011;64265;51.664;7.626;2022-12-05T09:16:57;9.10;;;4.60;;
2362;SDS011;64265;51.664;7.626;2022-12-05T09:19:24;7.90;;;4.30;;
2362;SDS011;64265;51.664;7.626;2022-12-05T09:21:59;9.63;;;4.60;;
2362;SDS011;64265;51.664;7.626;2022-12-05T09:24:26;5.23;;;4.70;;
2362;SDS011;64265;51.664;7.626;2022-12-05T09:26:52;7.40;;;4.80;;
2362;SDS011;64265;51.664;7.626;2022-12-05T09:29:19;5.75;;;4.93;;
2362;SDS011;64265;51.664;7.626;2022-12-05T09:31:46;5.20;;;4.70;;
2362;SDS011;64265;51.664;7.626;2022-12-05T09:34:16;4.77;;;4.37;;
2362;SDS011;64265;51.664;7.626;2022-12-05T09:36:44;4.88;;;4.47;;
2362;SDS011;64265;51.664;7.626;2022-12-05T09:39:15;6.80;;;4.00;;
2362;SDS011;64265;51.664;7.626;2022-12-05T09:41:57;6.13;;;5.27;;
2362;SDS011;64265;51.664;7.626;2022-12-05T09:44:46;4.67;;;4.30;;
2362;SDS011;64265;51.664;7.626;2022-12-05T09:47:27;5.00;;;3.93;;
2362;SDS011;64265;51.664;7.626;2022-12-05T09:50:00;5.27;;;4.77;;
2362;SDS011;64265;51.664;7.626;2022-12-05T09:52:37;4.57;;;4.17;;
2362;SDS011;64265;51.664;7.626;2022-12-05T09:55:10;4.90;;;4.50;;
2362;SDS011;64265;51.664;7.626;2022-12-05T09:57:41;5.77;;;3.80;;
2362;SDS011;64265;51.664;7.626;2022-12-05T10:00:12;5.30;;;4.80;;
2362;SDS011;64265;51.664;7.626;2022-12-05T10:02:44;6.10;;;4.40;;
2362;SDS011;64265;51.664;7.626;2022-12-05T10:05:16;4.67;;;4.07;;
2362;SDS011;64265;51.664;7.626;2022-12-05T10:07:50;5.07;;;4.20;;
2362;SDS011;64265;51.664;7.626;2022-12-05T10:10:31;4.70;;;4.30;;
2362;SDS011;64265;51.664;7.626;2022-12-05T10:13:17;5.35;;;4.93;;
2362;SDS011;64265;51.664;7.626;2022-12-05T10:15:50;5.80;;;4.20;;
2362;SDS011;64265;51.664;7.626;2022-12-05T10:18:23;4.80;;;4.33;;
2362;SDS011;64265;51.664;7.626;2022-12-05T10:20:57;4.80;;;4.30;;
2362;SDS011;64265;51.664;7.626;2022-12-05T10:23:29;4.75;;;4.25;;
2362;SDS011;64265;51.664;7.626;2022-12-05T10:26:04;5.60;;;5.00;;
2362;SDS011;64265;51.664;7.626;2022-12-05T10:28:35;5.50;;;4.20;;
2362;SDS011;64265;51.664;7.626;2022-12-05T10:31:07;5.30;;;4.67;;
2362;SDS011;64265;51.664;7.626;2022-12-05T10:33:39;5.33;;;4.53;;
2362;SDS011;64265;51.664;7.626;2022-12-05T10:36:12;6.40;;;5.70;;
2362;SDS011;64265;51.664;7.626;2022-12-05T10:38:39;8.37;;;5.07;;
2362;SDS011;64265;51.664;7.626;2022-12-05T10:41:10;5.13;;;4.73;;
2362;SDS011;64265;51.664;7.626;2022-12-05T10:43:39;4.63;;;4.20;;
2362;SDS011;64265;51.664;7.626;2022-12-05T10:46:08;5.10;;;4.60;;
2362;SDS011;64265;51.664;7.626;2022-12-05T10:48:36;5.83;;;5.33;;
2362;SDS011;64265;51.664;7.626;2022-12-05T10:51:04;4.68;;;4.28;;
2362;SDS011;64265;51.664;7.626;2022-12-05T10:53:35;5.37;;;4.73;;
2362;SDS011;64265;51.664;7.626;2022-12-05T10:59:11;5.33;;;4.13;;
2362;SDS011;64265;51.664;7.626;2022-12-05T11:01:42;4.87;;;4.43;;
2362;SDS011;64265;51.664;7.626;2022-12-05T11:04:17;4.37;;;3.97;;
2362;SDS011;64265;51.664;7.626;2022-12-05T11:06:50;4.93;;;4.50;;
2362;SDS011;64265;51.664;7.626;2022-12-05T11:09:19;5.10;;;4.03;;
2362;SDS011;64265;51.664;7.626;2022-12-05T11:12:02;5.00;;;4.50;;
2362;SDS011;64265;51.664;7.626;2022-12-05T11:14:39;5.13;;;4.63;;
2362;SDS011;64265;51.664;7.626;2022-12-05T11:17:21;5.23;;;4.50;;
2362;SDS011;64265;51.664;7.626;2022-12-05T11:19:50;5.23;;;4.80;;
2362;SDS011;64265;51.664;7.626;2022-12-05T11:22:17;6.10;;;5.53;;
2362;SDS011;64265;51.664;7.626;2022-12-05T11:24:44;5.73;;;4.40;;
2362;SDS011;64265;51.664;7.626;2022-12-05T11:27:23;5.10;;;3.83;;
2362;SDS011;64265;51.664;7.626;2022-12-05T11:29:54;4.83;;;4.43;;
2362;SDS011;64265;51.664;7.626;2022-12-05T11:32:24;4.93;;;4.43;;
2362;SDS011;64265;51.664;7.626;2022-12-05T11:34:55;5.40;;;4.88;;
2362;SDS011;64265;51.664;7.626;2022-12-05T11:37:27;5.10;;;4.60;;
2362;SDS011;64265;51.664;7.626;2022-12-05T11:40:00;6.03;;;4.27;;
2362;SDS011;64265;51.664;7.626;2022-12-05T11:42:32;4.60;;;4.18;;
2362;SDS011;64265;51.664;7.626;2022-12-05T11:45:16;5.87;;;5.27;;
2362;SDS011;64265;51.664;7.626;2022-12-05T11:48:07;5.77;;;4.17;;
2362;SDS011;64265;51.664;7.626;2022-12-05T11:50:42;6.40;;;4.03;;
2362;SDS011;64265;51.664;7.626;2022-12-05T11:53:17;4.72;;;4.35;;
2362;SDS011;64265;51.664;7.626;2022-12-05T11:55:58;4.38;;;4.00;;
2362;SDS011;64265;51.664;7.626;2022-12-05T11:58:43;5.00;;;4.50;;
2362;SDS011;64265;51.664;7.626;2022-12-05T12:01:20;5.40;;;4.88;;
2362;SDS011;64265;51.664;7.626;2022-12-05T12:06:58;3.83;;;3.53;;
2362;SDS011;64265;51.664;7.626;2022-12-05T12:09:36;4.90;;;3.67;;
2362;SDS011;64265;51.664;7.626;2022-12-05T12:12:12;5.10;;;4.70;;
2362;SDS011;64265;51.664;7.626;2022-12-05T12:14:49;6.70;;;4.50;;
2362;SDS011;64265;51.664;7.626;2022-12-05T12:17:27;5.00;;;4.60;;
2362;SDS011;64265;51.664;7.626;2022-12-05T12:20:11;5.23;;;4.73;;
2362;SDS011;64265;51.664;7.626;2022-12-05T12:22:55;4.83;;;4.43;;
2362;SDS011;64265;51.664;7.626;2022-12-05T12:25:33;4.50;;;3.87;;
2362;SDS011;64265;51.664;7.626;2022-12-05T12:28:11;3.65;;;3.35;;
2362;SDS011;64265;51.664;7.626;2022-12-05T12:30:54;4.10;;;3.63;;
2362;SDS011;64265;51.664;7.626;2022-12-05T12:33:31;4.40;;;4.00;;
2362;SDS011;64265;51.664;7.626;2022-12-05T12:36:04;4.40;;;3.83;;
2362;SDS011;64265;51.664;7.626;2022-12-05T12:38:43;3.90;;;3.60;;
2362;SDS011;64265;51.664;7.626;2022-12-05T12:41:31;3.83;;;3.07;;
2362;SDS011;64265;51.664;7.626;2022-12-05T12:44:17;4.00;;;3.57;;
2362;SDS011;64265;51.664;7.626;2022-12-05T12:47:08;4.97;;;4.57;;
2362;SDS011;64265;51.664;7.626;2022-12-05T12:49:45;3.60;;;3.30;;
2362;SDS011;64265;51.664;7.626;2022-12-05T12:52:20;3.60;;;3.30;;
2362;SDS011;64265;51.664;7.626;2022-12-05T12:55:02;3.57;;;3.27;;
2362;SDS011;64265;51.664;7.626;2022-12-05T12:57:48;4.20;;;3.83;;
2362;SDS011;64265;51.664;7.626;2022-12-05T13:00:25;3.80;;;3.50;;
2362;SDS011;64265;51.664;7.626;2022-12-05T13:03:04;3.53;;;3.23;;
2362;SDS011;64265;51.664;7.626;2022-12-05T13:05:35;3.50;;;3.20;;
2362;SDS011;64265;51.664;7.626;2022-12-05T13:08:10;4.27;;;3.87;;
2362;SDS011;64265;51.664;7.626;2022-12-05T13:10:41;4.00;;;3.70;;
2362;SDS011;64265;51.664;7.626;2022-12-05T13:13:10;4.10;;;3.57;;
2362;SDS011;64265;51.664;7.626;2022-12-05T13:15:41;4.23;;;3.40;;
2362;SDS011;64265;51.664;7.626;2022-12-05T13:18:15;5.80;;;3.80;;
2362;SDS011;64265;51.664;7.626;2022-12-05T13:20:43;4.23;;;3.50;;
2362;SDS011;64265;51.664;7.626;2022-12-05T13:23:13;4.80;;;4.40;;
2362;SDS011;64265;51.664;7.626;2022-12-05T13:25:43;4.37;;;3.97;;
2362;SDS011;64265;51.664;7.626;2022-12-05T13:28:15;3.63;;;3.33;;
2362;SDS011;64265;51.664;7.626;2022-12-05T13:30:50;5.03;;;4.63;;
2362;SDS011;64265;51.664;7.626;2022-12-05T13:33:27;5.30;;;4.80;;
2362;SDS011;64265;51.664;7.626;2022-12-05T13:35:56;5.95;;;5.45;;
2362;SDS011;64265;51.664;7.626;2022-12-05T13:38:48;5.40;;;4.90;;
2362;SDS011;64265;51.664;7.626;2022-12-05T13:41:37;4.97;;;4.57;;
2362;SDS011;64265;51.664;7.626;2022-12-05T13:44:27;4.10;;;3.80;;
2362;SDS011;64265;51.664;7.626;2022-12-05T13:46:58;4.90;;;4.50;;
2362;SDS011;64265;51.664;7.626;2022-12-05T13:52:50;3.63;;;3.33;;
2362;SDS011;64265;51.664;7.626;2022-12-05T13:55:22;7.32;;;4.50;;
2362;SDS011;64265;51.664;7.626;2022-12-05T13:57:53;4.40;;;4.03;;
2362;SDS011;64265;51.664;7.626;2022-12-05T14:00:21;4.32;;;3.92;;
2362;SDS011;64265;51.664;7.626;2022-12-05T14:02:54;5.32;;;4.22;;
2362;SDS011;64265;51.664;7.626;2022-12-05T14:05:33;4.93;;;4.50;;
2362;SDS011;64265;51.664;7.626;2022-12-05T14:11:30;5.00;;;4.55;;
2362;SDS011;64265;51.664;7.626;2022-12-05T14:13:57;4.70;;;4.30;;
2362;SDS011;64265;51.664;7.626;2022-12-05T14:22:33;7.93;;;4.50;;
2362;SDS011;64265;51.664;7.626;2022-12-05T14:25:47;5.43;;;4.93;;
2362;SDS011;64265;51.664;7.626;2022-12-05T14:28:32;5.10;;;4.70;;
2362;SDS011;64265;51.664;7.626;2022-12-05T14:31:25;5.70;;;5.20;;
2362;SDS011;64265;51.664;7.626;2022-12-05T14:36:52;4.67;;;4.17;;
2362;SDS011;64265;51.664;7.626;2022-12-05T14:39:21;4.77;;;4.37;;
2362;SDS011;64265;51.664;7.626;2022-12-05T14:42:06;4.73;;;4.33;;
2362;SDS011;64265;51.664;7.626;2022-12-05T14:44:47;5.83;;;5.30;;
2362;SDS011;64265;51.664;7.626;2022-12-05T14:47:19;3.53;;;3.23;;
2362;SDS011;64265;51.664;7.626;2022-12-05T14:49:50;3.93;;;3.63;;
2362;SDS011;64265;51.664;7.626;2022-12-05T14:52:25;4.90;;;4.40;;
2362;SDS011;64265;51.664;7.626;2022-12-05T14:54:54;5.43;;;4.10;;
2362;SDS011;64265;51.664;7.626;2022-12-05T14:57:26;4.70;;;4.27;;
2362;SDS011;64265;51.664;7.626;2022-12-05T14:59:55;4.33;;;3.93;;
2362;SDS011;64265;51.664;7.626;2022-12-05T15:02:26;4.00;;;3.60;;
2362;SDS011;64265;51.664;7.626;2022-12-05T15:04:57;5.03;;;4.57;;
2362;SDS011;64265;51.664;7.626;2022-12-05T15:07:30;3.85;;;3.42;;
2362;SDS011;64265;51.664;7.626;2022-12-05T15:09:59;5.10;;;3.50;;
2362;SDS011;64265;51.664;7.626;2022-12-05T15:12:31;4.77;;;3.70;;
2362;SDS011;64265;51.664;7.626;2022-12-05T15:15:11;4.20;;;3.23;;
2362;SDS011;64265;51.664;7.626;2022-12-05T15:17:43;5.47;;;4.97;;
2362;SDS011;64265;51.664;7.626;2022-12-05T15:20:16;3.90;;;3.53;;
2362;SDS011;64265;51.664;7.626;2022-12-05T15:22:49;4.10;;;3.80;;
2362;SDS011;64265;51.664;7.626;2022-12-05T15:25:20;4.40;;;4.00;;
2362;SDS011;64265;51.664;7.626;2022-12-05T15:28:01;4.50;;;4.13;;
2362;SDS011;64265;51.664;7.626;2022-12-05T15:30:31;4.63;;;4.30;;
2362;SDS011;64265;51.664;7.626;2022-12-05T15:33:01;4.20;;;3.90;;
2362;SDS011;64265;51.664;7.626;2022-12-05T15:35:29;3.70;;;3.40;;
2362;SDS011;64265;51.664;7.626;2022-12-05T15:37:59;4.93;;;4.53;;
2362;SDS011;64265;51.664;7.626;2022-12-05T15:40:31;4.37;;;3.97;;
2362;SDS011;64265;51.664;7.626;2022-12-05T15:43:01;3.90;;;3.60;;
2362;SDS011;64265;51.664;7.626;2022-12-05T15:46:06;3.60;;;3.30;;
2362;SDS011;64265;51.664;7.626;2022-12-05T15:48:33;3.77;;;3.40;;
2362;SDS011;64265;51.664;7.626;2022-12-05T15:51:02;3.43;;;3.23;;